sensor_id;sensor_type;location;lat;lon;timestamp;temperature;humidity
19972;DHT22;10147;16.402;102.848;2023-07-13T00:00:50;26.90;99.90
19972;DHT22;10147;16.402;102.848;2023-07-13T00:03:20;26.90;99.90
19972;DHT22;10147;16.402;102.848;2023-07-13T00:05:58;27.00;99.90
19972;DHT22;10147;16.402;102.848;2023-07-13T00:08:31;26.90;99.90
19972;DHT22;10147;16.402;102.848;2023-07-13T00:11:03;27.00;99.90
19972;DHT22;10147;16.402;102.848;2023-07-13T00:13:33;27.00;99.90
19972;DHT22;10147;16.402;102.848;2023-07-13T00:16:03;26.90;99.90
19972;DHT22;10147;16.402;102.848;2023-07-13T00:18:33;26.90;99.90
19972;DHT22;10147;16.402;102.848;2023-07-13T00:21:03;27.00;99.90
19972;DHT22;10147;16.402;102.848;2023-07-13T00:23:39;27.10;99.90
19972;DHT22;10147;16.402;102.848;2023-07-13T00:26:11;27.20;99.90
19972;DHT22;10147;16.402;102.848;2023-07-13T00:28:42;27.20;99.90
19972;DHT22;10147;16.402;102.848;2023-07-13T00:31:13;27.20;99.90
19972;DHT22;10147;16.402;102.848;2023-07-13T00:33:48;27.30;99.90
19972;DHT22;10147;16.402;102.848;2023-07-13T00:36:19;27.40;99.90
19972;DHT22;10147;16.402;102.848;2023-07-13T00:38:50;27.40;99.90
19972;DHT22;10147;16.402;102.848;2023-07-13T00:41:20;27.40;99.90
19972;DHT22;10147;16.402;102.848;2023-07-13T00:43:50;27.60;99.90
19972;DHT22;10147;16.402;102.848;2023-07-13T00:46:29;27.60;99.90
19972;DHT22;10147;16.402;102.848;2023-07-13T00:49:04;27.60;99.90
19972;DHT22;10147;16.402;102.848;2023-07-13T00:51:58;27.80;99.90
19972;DHT22;10147;16.402;102.848;2023-07-13T00:54:37;27.80;99.90
19972;DHT22;10147;16.402;102.848;2023-07-13T00:57:12;27.90;99.90
19972;DHT22;10147;16.402;102.848;2023-07-13T00:59:55;28.00;99.90
19972;DHT22;10147;16.402;102.848;2023-07-13T01:02:27;28.10;99.90
19972;DHT22;10147;16.402;102.848;2023-07-13T01:04:58;28.10;99.90
19972;DHT22;10147;16.402;102.848;2023-07-13T01:07:28;28.10;99.90
19972;DHT22;10147;16.402;102.848;2023-07-13T01:09:59;28.30;99.90
19972;DHT22;10147;16.402;102.848;2023-07-13T01:12:48;28.40;99.90
19972;DHT22;10147;16.402;102.848;2023-07-13T01:15:43;28.50;99.90
19972;DHT22;10147;16.402;102.848;2023-07-13T01:18:24;28.70;99.90
19972;DHT22;10147;16.402;102.848;2023-07-13T01:21:02;28.70;99.90
19972;DHT22;10147;16.402;102.848;2023-07-13T01:23:33;28.80;99.90
19972;DHT22;10147;16.402;102.848;2023-07-13T01:26:03;28.80;99.90
19972;DHT22;10147;16.402;102.848;2023-07-13T01:28:34;28.80;99.90
19972;DHT22;10147;16.402;102.848;2023-07-13T01:31:09;28.80;99.90
19972;DHT22;10147;16.402;102.848;2023-07-13T01:33:41;28.90;99.90
19972;DHT22;10147;16.402;102.848;2023-07-13T01:36:12;28.90;99.90
19972;DHT22;10147;16.402;102.848;2023-07-13T01:38:43;29.00;99.90
19972;DHT22;10147;16.402;102.848;2023-07-13T01:41:14;29.10;99.90
19972;DHT22;10147;16.402;102.848;2023-07-13T01:43:46;29.20;99.90
19972;DHT22;10147;16.402;102.848;2023-07-13T01:46:17;29.40;99.90
19972;DHT22;10147;16.402;102.848;2023-07-13T01:48:51;29.40;99.90
19972;DHT22;10147;16.402;102.848;2023-07-13T01:51:23;29.50;99.90
19972;DHT22;10147;16.402;102.848;2023-07-13T01:53:54;29.70;99.90
19972;DHT22;10147;16.402;102.848;2023-07-13T01:56:25;29.70;99.90
19972;DHT22;10147;16.402;102.848;2023-07-13T01:58:55;29.80;99.90
19972;DHT22;10147;16.402;102.848;2023-07-13T02:01:27;29.90;99.90
19972;DHT22;10147;16.402;102.848;2023-07-13T02:03:57;29.90;99.90
19972;DHT22;10147;16.402;102.848;2023-07-13T02:06:28;30.00;99.90
19972;DHT22;10147;16.402;102.848;2023-07-13T02:08:59;30.10;99.90
19972;DHT22;10147;16.402;102.848;2023-07-13T02:11:29;30.20;99.90
19972;DHT22;10147;16.402;102.848;2023-07-13T02:14:04;30.30;99.90
19972;DHT22;10147;16.402;102.848;2023-07-13T02:16:34;30.30;99.90
19972;DHT22;10147;16.402;102.848;2023-07-13T02:19:05;30.30;99.90
19972;DHT22;10147;16.402;102.848;2023-07-13T02:21:36;30.20;99.90
19972;DHT22;10147;16.402;102.848;2023-07-13T02:24:06;30.40;99.90
19972;DHT22;10147;16.402;102.848;2023-07-13T02:26:56;30.60;99.90
19972;DHT22;10147;16.402;102.848;2023-07-13T02:29:26;30.60;99.90
19972;DHT22;10147;16.402;102.848;2023-07-13T02:31:56;30.50;99.90
19972;DHT22;10147;16.402;102.848;2023-07-13T02:34:26;30.70;99.90
19972;DHT22;10147;16.402;102.848;2023-07-13T02:37:00;30.70;99.90
19972;DHT22;10147;16.402;102.848;2023-07-13T02:39:31;30.70;99.90
19972;DHT22;10147;16.402;102.848;2023-07-13T02:42:03;30.80;99.90
19972;DHT22;10147;16.402;102.848;2023-07-13T02:44:33;30.90;99.90
19972;DHT22;10147;16.402;102.848;2023-07-13T02:47:04;31.00;99.90
19972;DHT22;10147;16.402;102.848;2023-07-13T02:49:37;31.00;99.90
19972;DHT22;10147;16.402;102.848;2023-07-13T02:52:07;31.00;99.90
19972;DHT22;10147;16.402;102.848;2023-07-13T02:54:37;31.20;99.90
19972;DHT22;10147;16.402;102.848;2023-07-13T02:57:07;31.20;99.90
19972;DHT22;10147;16.402;102.848;2023-07-13T02:59:37;31.40;99.90
19972;DHT22;10147;16.402;102.848;2023-07-13T03:02:07;31.50;99.90
19972;DHT22;10147;16.402;102.848;2023-07-13T03:04:37;31.30;99.90
19972;DHT22;10147;16.402;102.848;2023-07-13T03:07:09;31.50;99.90
19972;DHT22;10147;16.402;102.848;2023-07-13T03:09:39;31.60;99.90
19972;DHT22;10147;16.402;102.848;2023-07-13T03:12:09;31.70;99.90
19972;DHT22;10147;16.402;102.848;2023-07-13T03:14:40;31.60;99.90
19972;DHT22;10147;16.402;102.848;2023-07-13T03:17:10;31.90;99.90
19972;DHT22;10147;16.402;102.848;2023-07-13T03:19:41;32.00;99.90
19972;DHT22;10147;16.402;102.848;2023-07-13T03:22:12;32.00;99.90
19972;DHT22;10147;16.402;102.848;2023-07-13T03:24:44;32.00;99.90
19972;DHT22;10147;16.402;102.848;2023-07-13T03:27:17;32.10;99.90
19972;DHT22;10147;16.402;102.848;2023-07-13T03:29:49;32.00;99.90
19972;DHT22;10147;16.402;102.848;2023-07-13T03:32:19;32.10;99.90
19972;DHT22;10147;16.402;102.848;2023-07-13T03:34:49;32.20;99.90
19972;DHT22;10147;16.402;102.848;2023-07-13T03:37:20;32.30;99.90
19972;DHT22;10147;16.402;102.848;2023-07-13T03:39:51;32.50;99.90
19972;DHT22;10147;16.402;102.848;2023-07-13T03:42:22;32.60;99.90
19972;DHT22;10147;16.402;102.848;2023-07-13T03:44:52;32.50;99.90
19972;DHT22;10147;16.402;102.848;2023-07-13T03:47:23;32.50;99.90
19972;DHT22;10147;16.402;102.848;2023-07-13T03:49:55;32.70;99.90
19972;DHT22;10147;16.402;102.848;2023-07-13T03:52:25;32.60;99.90
19972;DHT22;10147;16.402;102.848;2023-07-13T03:54:56;32.70;99.90
19972;DHT22;10147;16.402;102.848;2023-07-13T03:57:26;32.90;99.90
19972;DHT22;10147;16.402;102.848;2023-07-13T03:59:57;32.90;99.90
19972;DHT22;10147;16.402;102.848;2023-07-13T04:02:28;32.90;99.90
19972;DHT22;10147;16.402;102.848;2023-07-13T04:04:57;33.00;99.90
19972;DHT22;10147;16.402;102.848;2023-07-13T04:07:27;32.90;99.90
19972;DHT22;10147;16.402;102.848;2023-07-13T04:09:57;33.00;99.90
19972;DHT22;10147;16.402;102.848;2023-07-13T04:12:27;33.00;99.90
19972;DHT22;10147;16.402;102.848;2023-07-13T04:14:58;33.00;99.90
19972;DHT22;10147;16.402;102.848;2023-07-13T04:17:28;33.10;99.90
19972;DHT22;10147;16.402;102.848;2023-07-13T04:19:57;33.20;99.90
19972;DHT22;10147;16.402;102.848;2023-07-13T04:22:27;33.40;99.90
19972;DHT22;10147;16.402;102.848;2023-07-13T04:24:57;33.60;99.90
19972;DHT22;10147;16.402;102.848;2023-07-13T04:27:27;33.70;99.90
19972;DHT22;10147;16.402;102.848;2023-07-13T04:29:58;33.80;99.90
19972;DHT22;10147;16.402;102.848;2023-07-13T04:32:28;33.70;99.90
19972;DHT22;10147;16.402;102.848;2023-07-13T04:34:58;33.80;99.90
19972;DHT22;10147;16.402;102.848;2023-07-13T04:37:29;33.90;99.90
19972;DHT22;10147;16.402;102.848;2023-07-13T04:39:58;34.10;99.90
19972;DHT22;10147;16.402;102.848;2023-07-13T04:42:29;34.10;99.90
19972;DHT22;10147;16.402;102.848;2023-07-13T04:44:59;34.10;99.90
19972;DHT22;10147;16.402;102.848;2023-07-13T04:47:30;34.20;99.90
19972;DHT22;10147;16.402;102.848;2023-07-13T04:50:01;34.10;99.90
19972;DHT22;10147;16.402;102.848;2023-07-13T04:52:30;34.20;99.90
19972;DHT22;10147;16.402;102.848;2023-07-13T04:55:02;34.20;99.90
19972;DHT22;10147;16.402;102.848;2023-07-13T04:57:32;34.20;99.90
19972;DHT22;10147;16.402;102.848;2023-07-13T05:00:04;34.10;99.90
19972;DHT22;10147;16.402;102.848;2023-07-13T05:02:34;34.40;99.90
19972;DHT22;10147;16.402;102.848;2023-07-13T05:05:05;34.40;99.90
19972;DHT22;10147;16.402;102.848;2023-07-13T05:07:35;34.60;99.90
19972;DHT22;10147;16.402;102.848;2023-07-13T05:10:06;34.60;99.90
19972;DHT22;10147;16.402;102.848;2023-07-13T05:12:36;34.80;99.90
19972;DHT22;10147;16.402;102.848;2023-07-13T05:15:06;34.50;99.90
19972;DHT22;10147;16.402;102.848;2023-07-13T05:17:39;34.70;99.90
19972;DHT22;10147;16.402;102.848;2023-07-13T05:20:12;34.70;99.90
19972;DHT22;10147;16.402;102.848;2023-07-13T05:22:43;34.70;99.90
19972;DHT22;10147;16.402;102.848;2023-07-13T05:25:14;34.60;99.90
19972;DHT22;10147;16.402;102.848;2023-07-13T05:27:44;34.60;99.90
19972;DHT22;10147;16.402;102.848;2023-07-13T05:30:15;34.70;99.90
19972;DHT22;10147;16.402;102.848;2023-07-13T05:32:45;34.80;99.90
19972;DHT22;10147;16.402;102.848;2023-07-13T05:35:15;35.20;99.90
19972;DHT22;10147;16.402;102.848;2023-07-13T05:37:46;35.30;99.90
19972;DHT22;10147;16.402;102.848;2023-07-13T05:40:16;35.50;99.90
19972;DHT22;10147;16.402;102.848;2023-07-13T05:42:46;35.20;99.90
19972;DHT22;10147;16.402;102.848;2023-07-13T05:45:16;35.50;99.90
19972;DHT22;10147;16.402;102.848;2023-07-13T05:47:46;35.40;99.90
19972;DHT22;10147;16.402;102.848;2023-07-13T05:50:16;35.40;99.90
19972;DHT22;10147;16.402;102.848;2023-07-13T05:52:47;35.80;99.90
19972;DHT22;10147;16.402;102.848;2023-07-13T05:55:16;35.90;99.90
19972;DHT22;10147;16.402;102.848;2023-07-13T05:57:46;35.50;99.90
19972;DHT22;10147;16.402;102.848;2023-07-13T06:00:16;35.30;99.90
19972;DHT22;10147;16.402;102.848;2023-07-13T06:02:46;35.20;99.90
19972;DHT22;10147;16.402;102.848;2023-07-13T06:05:16;34.90;99.90
19972;DHT22;10147;16.402;102.848;2023-07-13T06:07:47;35.00;99.90
19972;DHT22;10147;16.402;102.848;2023-07-13T06:10:17;34.90;99.90
19972;DHT22;10147;16.402;102.848;2023-07-13T06:12:47;34.80;99.90
19972;DHT22;10147;16.402;102.848;2023-07-13T06:15:17;34.80;99.90
19972;DHT22;10147;16.402;102.848;2023-07-13T06:17:48;34.30;99.90
19972;DHT22;10147;16.402;102.848;2023-07-13T06:20:18;33.00;99.90
19972;DHT22;10147;16.402;102.848;2023-07-13T06:22:49;32.50;99.90
19972;DHT22;10147;16.402;102.848;2023-07-13T06:25:19;31.80;99.90
19972;DHT22;10147;16.402;102.848;2023-07-13T06:27:49;31.60;99.90
19972;DHT22;10147;16.402;102.848;2023-07-13T06:30:19;31.20;99.90
19972;DHT22;10147;16.402;102.848;2023-07-13T06:32:50;30.80;99.90
19972;DHT22;10147;16.402;102.848;2023-07-13T06:35:20;30.20;99.90
19972;DHT22;10147;16.402;102.848;2023-07-13T06:37:50;29.60;99.90
19972;DHT22;10147;16.402;102.848;2023-07-13T06:40:21;29.40;99.90
19972;DHT22;10147;16.402;102.848;2023-07-13T06:42:52;29.30;99.90
19972;DHT22;10147;16.402;102.848;2023-07-13T06:45:23;29.30;99.90
19972;DHT22;10147;16.402;102.848;2023-07-13T06:47:54;29.30;99.90
19972;DHT22;10147;16.402;102.848;2023-07-13T06:50:25;29.20;99.90
19972;DHT22;10147;16.402;102.848;2023-07-13T06:52:56;29.20;99.90
19972;DHT22;10147;16.402;102.848;2023-07-13T06:55:26;29.20;99.90
19972;DHT22;10147;16.402;102.848;2023-07-13T06:57:56;29.20;99.90
19972;DHT22;10147;16.402;102.848;2023-07-13T07:00:25;29.30;99.90
19972;DHT22;10147;16.402;102.848;2023-07-13T07:02:56;29.40;99.90
19972;DHT22;10147;16.402;102.848;2023-07-13T07:05:27;29.40;99.90
19972;DHT22;10147;16.402;102.848;2023-07-13T07:07:58;29.50;99.90
19972;DHT22;10147;16.402;102.848;2023-07-13T07:10:32;29.40;99.90
19972;DHT22;10147;16.402;102.848;2023-07-13T07:13:04;29.30;99.90
19972;DHT22;10147;16.402;102.848;2023-07-13T07:15:34;29.20;99.90
19972;DHT22;10147;16.402;102.848;2023-07-13T07:18:06;29.00;99.90
19972;DHT22;10147;16.402;102.848;2023-07-13T07:20:37;29.10;99.90
19972;DHT22;10147;16.402;102.848;2023-07-13T07:23:07;29.10;99.90
19972;DHT22;10147;16.402;102.848;2023-07-13T07:25:37;29.00;99.90
19972;DHT22;10147;16.402;102.848;2023-07-13T07:28:16;29.00;99.90
19972;DHT22;10147;16.402;102.848;2023-07-13T07:30:57;28.90;99.90
19972;DHT22;10147;16.402;102.848;2023-07-13T07:33:32;28.90;99.90
19972;DHT22;10147;16.402;102.848;2023-07-13T07:36:03;28.80;99.90
19972;DHT22;10147;16.402;102.848;2023-07-13T07:38:37;28.70;99.90
19972;DHT22;10147;16.402;102.848;2023-07-13T07:41:08;28.70;99.90
19972;DHT22;10147;16.402;102.848;2023-07-13T07:43:41;28.70;99.90
19972;DHT22;10147;16.402;102.848;2023-07-13T07:46:11;28.70;99.90
19972;DHT22;10147;16.402;102.848;2023-07-13T07:48:43;28.70;99.90
19972;DHT22;10147;16.402;102.848;2023-07-13T07:51:13;28.60;99.90
19972;DHT22;10147;16.402;102.848;2023-07-13T07:53:43;28.60;99.90
19972;DHT22;10147;16.402;102.848;2023-07-13T07:56:14;28.60;99.90
19972;DHT22;10147;16.402;102.848;2023-07-13T07:58:48;28.60;99.90
19972;DHT22;10147;16.402;102.848;2023-07-13T08:01:23;28.70;99.90
19972;DHT22;10147;16.402;102.848;2023-07-13T08:03:56;28.60;99.90
19972;DHT22;10147;16.402;102.848;2023-07-13T08:06:31;28.50;99.90
19972;DHT22;10147;16.402;102.848;2023-07-13T08:09:05;28.60;99.90
19972;DHT22;10147;16.402;102.848;2023-07-13T08:11:36;28.40;99.90
19972;DHT22;10147;16.402;102.848;2023-07-13T08:14:09;28.50;99.90
19972;DHT22;10147;16.402;102.848;2023-07-13T08:16:39;28.20;99.90
19972;DHT22;10147;16.402;102.848;2023-07-13T08:19:11;28.30;99.90
19972;DHT22;10147;16.402;102.848;2023-07-13T08:21:41;28.00;99.90
19972;DHT22;10147;16.402;102.848;2023-07-13T08:24:12;27.80;99.90
19972;DHT22;10147;16.402;102.848;2023-07-13T08:26:42;27.60;99.90
19972;DHT22;10147;16.402;102.848;2023-07-13T08:29:12;27.80;99.90
19972;DHT22;10147;16.402;102.848;2023-07-13T08:31:43;27.70;99.90
19972;DHT22;10147;16.402;102.848;2023-07-13T08:34:13;27.70;99.90
19972;DHT22;10147;16.402;102.848;2023-07-13T08:36:44;27.90;99.90
19972;DHT22;10147;16.402;102.848;2023-07-13T08:39:15;27.90;99.90
19972;DHT22;10147;16.402;102.848;2023-07-13T08:41:52;28.20;99.90
19972;DHT22;10147;16.402;102.848;2023-07-13T08:44:37;28.30;99.90
19972;DHT22;10147;16.402;102.848;2023-07-13T08:47:10;28.40;99.90
19972;DHT22;10147;16.402;102.848;2023-07-13T08:49:42;28.50;99.90
19972;DHT22;10147;16.402;102.848;2023-07-13T08:52:31;28.60;99.90
19972;DHT22;10147;16.402;102.848;2023-07-13T08:55:30;28.60;99.90
19972;DHT22;10147;16.402;102.848;2023-07-13T08:58:14;28.40;99.90
19972;DHT22;10147;16.402;102.848;2023-07-13T09:01:25;28.60;99.90
19972;DHT22;10147;16.402;102.848;2023-07-13T09:04:15;28.60;99.90
19972;DHT22;10147;16.402;102.848;2023-07-13T09:10:20;28.50;99.90
19972;DHT22;10147;16.402;102.848;2023-07-13T09:15:49;28.20;99.90
19972;DHT22;10147;16.402;102.848;2023-07-13T09:21:34;28.20;99.90
19972;DHT22;10147;16.402;102.848;2023-07-13T09:24:29;28.20;99.90
19972;DHT22;10147;16.402;102.848;2023-07-13T09:27:13;28.30;99.90
19972;DHT22;10147;16.402;102.848;2023-07-13T09:29:50;28.40;99.90
19972;DHT22;10147;16.402;102.848;2023-07-13T09:32:26;28.40;99.90
19972;DHT22;10147;16.402;102.848;2023-07-13T09:34:57;28.30;99.90
19972;DHT22;10147;16.402;102.848;2023-07-13T09:37:31;28.40;99.90
19972;DHT22;10147;16.402;102.848;2023-07-13T09:40:04;28.50;99.90
19972;DHT22;10147;16.402;102.848;2023-07-13T09:42:35;28.50;99.90
19972;DHT22;10147;16.402;102.848;2023-07-13T09:45:05;28.30;99.90
19972;DHT22;10147;16.402;102.848;2023-07-13T09:47:40;28.30;99.90
19972;DHT22;10147;16.402;102.848;2023-07-13T09:50:15;28.20;99.90
19972;DHT22;10147;16.402;102.848;2023-07-13T09:52:50;28.30;99.90
19972;DHT22;10147;16.402;102.848;2023-07-13T09:55:42;28.40;99.90
19972;DHT22;10147;16.402;102.848;2023-07-13T09:58:24;28.30;99.90
19972;DHT22;10147;16.402;102.848;2023-07-13T10:01:03;28.20;99.90
19972;DHT22;10147;16.402;102.848;2023-07-13T10:03:37;28.20;99.90
19972;DHT22;10147;16.402;102.848;2023-07-13T10:06:18;28.20;99.90
19972;DHT22;10147;16.402;102.848;2023-07-13T10:08:52;28.20;99.90
19972;DHT22;10147;16.402;102.848;2023-07-13T10:11:29;28.40;99.90
19972;DHT22;10147;16.402;102.848;2023-07-13T10:14:01;28.50;99.90
19972;DHT22;10147;16.402;102.848;2023-07-13T10:16:33;28.30;99.90
19972;DHT22;10147;16.402;102.848;2023-07-13T10:19:19;28.30;99.90
19972;DHT22;10147;16.402;102.848;2023-07-13T10:21:57;28.40;99.90
19972;DHT22;10147;16.402;102.848;2023-07-13T10:24:32;28.30;99.90
19972;DHT22;10147;16.402;102.848;2023-07-13T10:27:29;28.20;99.90
19972;DHT22;10147;16.402;102.848;2023-07-13T10:30:29;28.30;99.90
19972;DHT22;10147;16.402;102.848;2023-07-13T10:33:03;28.30;99.90
19972;DHT22;10147;16.402;102.848;2023-07-13T10:35:43;28.30;99.90
19972;DHT22;10147;16.402;102.848;2023-07-13T10:38:22;28.30;99.90
19972;DHT22;10147;16.402;102.848;2023-07-13T10:41:03;28.20;99.90
19972;DHT22;10147;16.402;102.848;2023-07-13T10:43:54;28.30;99.90
19972;DHT22;10147;16.402;102.848;2023-07-13T10:46:27;28.30;99.90
19972;DHT22;10147;16.402;102.848;2023-07-13T10:49:01;28.10;99.90
19972;DHT22;10147;16.402;102.848;2023-07-13T10:51:35;28.10;99.90
19972;DHT22;10147;16.402;102.848;2023-07-13T10:54:18;28.00;99.90
19972;DHT22;10147;16.402;102.848;2023-07-13T10:57:10;28.00;99.90
19972;DHT22;10147;16.402;102.848;2023-07-13T11:02:40;28.00;99.90
19972;DHT22;10147;16.402;102.848;2023-07-13T11:05:31;28.10;99.90
19972;DHT22;10147;16.402;102.848;2023-07-13T11:08:18;28.20;99.90
19972;DHT22;10147;16.402;102.848;2023-07-13T11:10:55;28.10;99.90
19972;DHT22;10147;16.402;102.848;2023-07-13T11:16:42;28.10;99.90
19972;DHT22;10147;16.402;102.848;2023-07-13T11:19:37;28.00;99.90
19972;DHT22;10147;16.402;102.848;2023-07-13T11:22:12;28.10;99.90
19972;DHT22;10147;16.402;102.848;2023-07-13T11:25:20;28.10;99.90
19972;DHT22;10147;16.402;102.848;2023-07-13T11:33:52;28.20;99.90
19972;DHT22;10147;16.402;102.848;2023-07-13T11:36:27;28.10;99.90
19972;DHT22;10147;16.402;102.848;2023-07-13T11:39:16;28.10;99.90
19972;DHT22;10147;16.402;102.848;2023-07-13T11:42:03;28.20;99.90
19972;DHT22;10147;16.402;102.848;2023-07-13T11:44:43;28.30;99.90
19972;DHT22;10147;16.402;102.848;2023-07-13T11:47:34;28.20;99.90
19972;DHT22;10147;16.402;102.848;2023-07-13T11:50:04;28.20;99.90
19972;DHT22;10147;16.402;102.848;2023-07-13T11:52:37;28.10;99.90
19972;DHT22;10147;16.402;102.848;2023-07-13T11:55:15;28.00;99.90
19972;DHT22;10147;16.402;102.848;2023-07-13T11:57:54;28.00;99.90
19972;DHT22;10147;16.402;102.848;2023-07-13T12:00:29;28.00;99.90
19972;DHT22;10147;16.402;102.848;2023-07-13T12:03:03;28.00;99.90
19972;DHT22;10147;16.402;102.848;2023-07-13T12:05:36;28.00;99.90
19972;DHT22;10147;16.402;102.848;2023-07-13T12:08:09;27.90;99.90
19972;DHT22;10147;16.402;102.848;2023-07-13T12:11:00;27.80;99.90
19972;DHT22;10147;16.402;102.848;2023-07-13T12:13:37;27.90;99.90
19972;DHT22;10147;16.402;102.848;2023-07-13T12:16:27;28.00;99.90
19972;DHT22;10147;16.402;102.848;2023-07-13T12:19:00;28.00;99.90
19972;DHT22;10147;16.402;102.848;2023-07-13T12:21:38;27.90;99.90
19972;DHT22;10147;16.402;102.848;2023-07-13T12:24:17;27.90;99.90
19972;DHT22;10147;16.402;102.848;2023-07-13T12:27:00;27.90;99.90
19972;DHT22;10147;16.402;102.848;2023-07-13T12:29:34;27.80;99.90
19972;DHT22;10147;16.402;102.848;2023-07-13T12:32:09;27.80;99.90
19972;DHT22;10147;16.402;102.848;2023-07-13T12:34:52;27.80;99.90
19972;DHT22;10147;16.402;102.848;2023-07-13T12:37:24;27.90;99.90
19972;DHT22;10147;16.402;102.848;2023-07-13T12:39:57;27.80;99.90
19972;DHT22;10147;16.402;102.848;2023-07-13T12:42:30;27.90;99.90
19972;DHT22;10147;16.402;102.848;2023-07-13T12:45:11;27.90;99.90
19972;DHT22;10147;16.402;102.848;2023-07-13T12:47:55;27.90;99.90
19972;DHT22;10147;16.402;102.848;2023-07-13T12:50:42;27.90;99.90
19972;DHT22;10147;16.402;102.848;2023-07-13T12:53:15;27.90;99.90
19972;DHT22;10147;16.402;102.848;2023-07-13T12:55:56;27.90;99.90
19972;DHT22;10147;16.402;102.848;2023-07-13T12:58:38;27.80;99.90
19972;DHT22;10147;16.402;102.848;2023-07-13T13:01:12;27.80;99.90
19972;DHT22;10147;16.402;102.848;2023-07-13T13:04:02;27.80;99.90
19972;DHT22;10147;16.402;102.848;2023-07-13T13:06:39;27.80;99.90
19972;DHT22;10147;16.402;102.848;2023-07-13T13:09:15;27.90;99.90
19972;DHT22;10147;16.402;102.848;2023-07-13T13:11:45;27.80;99.90
19972;DHT22;10147;16.402;102.848;2023-07-13T13:14:16;27.70;99.90
19972;DHT22;10147;16.402;102.848;2023-07-13T13:16:50;27.70;99.90
19972;DHT22;10147;16.402;102.848;2023-07-13T13:19:27;27.70;99.90
19972;DHT22;10147;16.402;102.848;2023-07-13T13:21:58;27.80;99.90
19972;DHT22;10147;16.402;102.848;2023-07-13T13:24:28;27.70;99.90
19972;DHT22;10147;16.402;102.848;2023-07-13T13:26:59;27.50;99.90
19972;DHT22;10147;16.402;102.848;2023-07-13T13:29:32;27.50;99.90
19972;DHT22;10147;16.402;102.848;2023-07-13T13:32:03;27.70;99.90
19972;DHT22;10147;16.402;102.848;2023-07-13T13:34:34;27.70;99.90
19972;DHT22;10147;16.402;102.848;2023-07-13T13:37:23;27.50;99.90
19972;DHT22;10147;16.402;102.848;2023-07-13T13:39:56;27.60;99.90
19972;DHT22;10147;16.402;102.848;2023-07-13T13:42:36;27.60;99.90
19972;DHT22;10147;16.402;102.848;2023-07-13T13:45:09;27.70;99.90
19972;DHT22;10147;16.402;102.848;2023-07-13T13:47:40;27.70;99.90
19972;DHT22;10147;16.402;102.848;2023-07-13T13:50:21;27.60;99.90
19972;DHT22;10147;16.402;102.848;2023-07-13T13:52:52;27.70;99.90
19972;DHT22;10147;16.402;102.848;2023-07-13T13:55:22;27.70;99.90
19972;DHT22;10147;16.402;102.848;2023-07-13T13:57:54;27.70;99.90
19972;DHT22;10147;16.402;102.848;2023-07-13T14:00:24;27.50;99.90
19972;DHT22;10147;16.402;102.848;2023-07-13T14:02:54;27.50;99.90
19972;DHT22;10147;16.402;102.848;2023-07-13T14:05:27;27.50;99.90
19972;DHT22;10147;16.402;102.848;2023-07-13T14:07:57;27.50;99.90
19972;DHT22;10147;16.402;102.848;2023-07-13T14:10:29;27.60;99.90
19972;DHT22;10147;16.402;102.848;2023-07-13T14:12:59;27.60;99.90
19972;DHT22;10147;16.402;102.848;2023-07-13T14:15:30;27.60;99.90
19972;DHT22;10147;16.402;102.848;2023-07-13T14:18:03;27.40;99.90
19972;DHT22;10147;16.402;102.848;2023-07-13T14:20:33;27.30;99.90
19972;DHT22;10147;16.402;102.848;2023-07-13T14:23:03;27.40;99.90
19972;DHT22;10147;16.402;102.848;2023-07-13T14:25:33;27.50;99.90
19972;DHT22;10147;16.402;102.848;2023-07-13T14:31:00;27.50;99.90
19972;DHT22;10147;16.402;102.848;2023-07-13T14:33:31;27.40;99.90
19972;DHT22;10147;16.402;102.848;2023-07-13T14:36:02;27.40;99.90
19972;DHT22;10147;16.402;102.848;2023-07-13T14:38:33;27.30;99.90
19972;DHT22;10147;16.402;102.848;2023-07-13T14:41:03;27.40;99.90
19972;DHT22;10147;16.402;102.848;2023-07-13T14:43:34;27.40;99.90
19972;DHT22;10147;16.402;102.848;2023-07-13T14:46:04;27.40;99.90
19972;DHT22;10147;16.402;102.848;2023-07-13T14:48:35;27.30;99.90
19972;DHT22;10147;16.402;102.848;2023-07-13T14:51:07;27.30;99.90
19972;DHT22;10147;16.402;102.848;2023-07-13T14:53:40;27.40;99.90
19972;DHT22;10147;16.402;102.848;2023-07-13T14:56:13;27.40;99.90
19972;DHT22;10147;16.402;102.848;2023-07-13T14:58:44;27.40;99.90
19972;DHT22;10147;16.402;102.848;2023-07-13T15:01:15;27.50;99.90
19972;DHT22;10147;16.402;102.848;2023-07-13T15:03:49;27.40;99.90
19972;DHT22;10147;16.402;102.848;2023-07-13T15:06:20;27.30;99.90
19972;DHT22;10147;16.402;102.848;2023-07-13T15:08:51;27.40;99.90
19972;DHT22;10147;16.402;102.848;2023-07-13T15:11:21;27.40;99.90
19972;DHT22;10147;16.402;102.848;2023-07-13T15:13:51;27.40;99.90
19972;DHT22;10147;16.402;102.848;2023-07-13T15:16:24;27.40;99.90
19972;DHT22;10147;16.402;102.848;2023-07-13T15:18:55;27.40;99.90
19972;DHT22;10147;16.402;102.848;2023-07-13T15:21:25;27.40;99.90
19972;DHT22;10147;16.402;102.848;2023-07-13T15:24:01;27.40;99.90
19972;DHT22;10147;16.402;102.848;2023-07-13T15:26:32;27.30;99.90
19972;DHT22;10147;16.402;102.848;2023-07-13T15:29:03;27.20;99.90
19972;DHT22;10147;16.402;102.848;2023-07-13T15:31:35;27.10;99.90
19972;DHT22;10147;16.402;102.848;2023-07-13T15:34:12;27.10;99.90
19972;DHT22;10147;16.402;102.848;2023-07-13T15:36:43;27.20;99.90
19972;DHT22;10147;16.402;102.848;2023-07-13T15:39:15;27.20;99.90
19972;DHT22;10147;16.402;102.848;2023-07-13T15:41:47;27.20;99.90
19972;DHT22;10147;16.402;102.848;2023-07-13T15:44:35;27.20;99.90
19972;DHT22;10147;16.402;102.848;2023-07-13T15:47:08;27.30;99.90
19972;DHT22;10147;16.402;102.848;2023-07-13T15:49:40;27.20;99.90
19972;DHT22;10147;16.402;102.848;2023-07-13T15:52:17;27.30;99.90
19972;DHT22;10147;16.402;102.848;2023-07-13T15:54:49;27.30;99.90
19972;DHT22;10147;16.402;102.848;2023-07-13T15:57:23;27.40;99.90
19972;DHT22;10147;16.402;102.848;2023-07-13T15:59:54;27.30;99.90
19972;DHT22;10147;16.402;102.848;2023-07-13T16:02:24;27.40;99.90
19972;DHT22;10147;16.402;102.848;2023-07-13T16:04:55;27.40;99.90
19972;DHT22;10147;16.402;102.848;2023-07-13T16:07:25;27.40;99.90